Time;durP1;ratioP1;P1;durP2;ratioP2;P2;SDS_P1;SDS_P2;PMS_P1;PMS_P2;Temp;Humidity;BMP_temperature;BMP_pressure;BME280_temperature;BME280_humidity;BME280_pressure;Samples;Min_cycle;Max_cycle;Signal;HPM_P1;HPM_P2
2024/01/18 06:04:02;;;;;;;;;;;2.80;99.90;;;;;;2615819;47;20280;-70
2024/01/18 06:06:32;;;;;;;;;;;0.80;99.90;;;;;;2614200;39;20785;-71
2024/01/18 06:09:02;;;;;;;;;;;0.80;99.90;;;;;;2614774;47;20430;-74
2024/01/18 06:11:33;;;;;;;;;;;0.80;99.90;;;;;;2616110;47;19974;-74
2024/01/18 06:14:03;;;;;;;;;;;0.80;99.90;;;;;;2614860;54;19981;-74
2024/01/18 06:16:32;;;;;;;;;;;0.80;99.90;;;;;;2614783;54;19953;-72
2024/01/18 06:19:05;;;;;;;;;;;0.80;99.90;;;;;;2614149;47;19962;-72
2024/01/18 06:21:34;;;;;;;;;;;0.80;99.90;;;;;;2617054;47;19954;-72
2024/01/18 06:24:07;;;;;;;;;;;0.90;99.90;;;;;;2614630;47;19942;-72
2024/01/18 06:26:38;;;;;;;;;;;0.90;99.90;;;;;;2614262;54;20040;-72
2024/01/18 06:29:07;;;;;;;;;;;0.90;99.90;;;;;;2615077;54;19950;-71
2024/01/18 06:31:37;;;;;;;;;;;0.90;99.90;;;;;;2615528;54;20470;-72
2024/01/18 06:34:10;;;;;;;;;;;1.00;99.90;;;;;;2615584;54;20034;-73
2024/01/18 06:36:39;;;;;;;;;;;1.00;99.90;;;;;;2616604;54;19939;-72
2024/01/18 06:39:10;;;;;;;;;;;1.10;99.90;;;;;;2615014;46;19962;-73
2024/01/18 06:41:40;;;;;;;;;;;1.10;99.90;;;;;;2616232;54;20430;-72
2024/01/18 06:44:09;;;;;;;;;;;1.10;99.90;;;;;;2615378;47;19953;-71
2024/01/18 06:46:39;;;;;;;;;;;1.00;99.90;;;;;;2618548;54;20002;-72
2024/01/18 06:49:11;;;;;;;;;;;1.00;99.90;;;;;;2624805;54;19957;-72
2024/01/18 06:51:42;;;;;;;;;;;0.90;99.90;;;;;;2621816;54;19973;-73
2024/01/18 06:54:12;;;;;;;;;;;0.90;99.90;;;;;;2617242;54;19949;-72
2024/01/18 06:56:47;;;;;;;;;;;0.80;99.90;;;;;;2619881;46;19954;-74
2024/01/18 06:59:17;;;;;;;;;;;0.80;99.90;;;;;;2607668;54;19943;-74
2024/01/18 07:01:46;;;;;;;;;;;0.80;99.90;;;;;;2612423;54;20040;-79
2024/01/18 07:04:19;;;;;;;;;;;0.80;99.90;;;;;;2611496;47;19991;-74
2024/01/18 07:06:49;;;;;;;;;;;0.80;99.90;;;;;;2620239;54;19939;-74
2024/01/18 07:09:19;;;;;;;;;;;0.80;99.90;;;;;;2617720;54;19946;-72
2024/01/18 07:11:48;;;;;;;;;;;0.80;99.90;;;;;;2619449;54;19943;-73
2024/01/18 07:14:18;;;;;;;;;;;0.80;99.90;;;;;;2617717;54;19947;-74
2024/01/18 07:16:48;;;;;;;;;;;0.80;99.90;;;;;;2620500;47;19944;-74
2024/01/18 07:19:20;;;;;;;;;;;0.80;99.90;;;;;;2619929;46;19946;-73
2024/01/18 07:21:50;;;;;;;;;;;0.90;99.90;;;;;;2620942;39;20374;-73
2024/01/18 07:24:20;;;;;;;;;;;0.90;99.90;;;;;;2616621;47;19946;-72
2024/01/18 07:26:50;;;;;;;;;;;1.00;99.90;;;;;;2619102;54;19941;-76
2024/01/18 07:29:20;;;;;;;;;;;1.00;99.90;;;;;;2617338;54;19957;-73
2024/01/18 07:31:49;;;;;;;;;;;1.00;99.90;;;;;;2615566;54;19950;-73
2024/01/18 07:34:21;;;;;;;;;;;1.00;99.90;;;;;;2617324;47;19935;-73
2024/01/18 07:36:52;;;;;;;;;;;1.10;99.90;;;;;;2615977;47;19970;-74
2024/01/18 07:39:21;;;;;;;;;;;1.10;99.90;;;;;;2615448;54;19950;-73
2024/01/18 07:41:51;;;;;;;;;;;1.10;99.90;;;;;;2616971;47;19998;-74
2024/01/18 07:44:21;;;;;;;;;;;1.10;99.90;;;;;;2615683;54;19951;-73
2024/01/18 07:46:50;;;;;;;;;;;1.00;99.90;;;;;;2616599;47;19943;-75
2024/01/18 07:49:23;;;;;;;;;;;1.00;99.90;;;;;;2614755;47;19935;-73
2024/01/18 07:51:52;;;;;;;;;;;0.90;99.90;;;;;;2616200;54;20489;-74
2024/01/18 07:54:22;;;;;;;;;;;0.80;99.90;;;;;;2618562;54;19947;-74
2024/01/18 07:56:52;;;;;;;;;;;0.70;99.90;;;;;;2618887;54;19946;-73
2024/01/18 07:59:22;;;;;;;;;;;0.70;99.90;;;;;;2617094;54;19947;-73
2024/01/18 08:01:52;;;;;;;;;;;0.70;99.90;;;;;;2616177;54;19947;-71
2024/01/18 08:04:25;;;;;;;;;;;0.70;99.90;;;;;;2617203;54;20859;-73
2024/01/18 08:06:55;;;;;;;;;;;0.80;99.90;;;;;;2613715;54;19950;-72
2024/01/18 08:09:28;;;;;;;;;;;0.80;99.90;;;;;;2613161;47;20465;-72
2024/01/18 08:11:58;;;;;;;;;;;0.80;99.90;;;;;;2611338;54;19946;-73
2024/01/18 08:14:28;;;;;;;;;;;0.80;99.90;;;;;;2614822;54;19934;-73
2024/01/18 08:16:57;;;;;;;;;;;0.90;99.90;;;;;;2609307;54;19956;-74
2024/01/18 08:19:30;;;;;;;;;;;0.90;99.90;;;;;;2615639;47;19950;-72
2024/01/18 08:22:01;;;;;;;;;;;1.00;99.90;;;;;;2611119;54;19943;-72
2024/01/18 08:24:30;;;;;;;;;;;1.10;99.90;;;;;;2616641;54;19938;-73
2024/01/18 08:27:00;;;;;;;;;;;1.10;99.90;;;;;;2617651;54;19947;-73
2024/01/18 08:29:30;;;;;;;;;;;1.20;99.90;;;;;;2618824;54;20494;-74
2024/01/18 08:32:01;;;;;;;;;;;1.20;99.90;;;;;;2618646;54;19946;-73
2024/01/18 08:34:35;;;;;;;;;;;1.20;99.90;;;;;;2619119;54;19951;-73
2024/01/18 08:37:06;;;;;;;;;;;1.20;99.90;;;;;;2619226;54;19953;-74
2024/01/18 08:39:35;;;;;;;;;;;1.00;99.90;;;;;;2619171;54;19938;-72
2024/01/18 08:42:05;;;;;;;;;;;1.00;99.90;;;;;;2618931;47;19959;-74
2024/01/18 08:44:35;;;;;;;;;;;1.00;99.90;;;;;;2619801;39;20479;-74
2024/01/18 08:47:05;;;;;;;;;;;0.90;99.90;;;;;;2617560;54;19950;-73
2024/01/18 08:49:38;;;;;;;;;;;0.90;99.90;;;;;;2617613;54;19955;-74
2024/01/18 08:52:08;;;;;;;;;;;0.90;99.90;;;;;;2620046;39;20330;-73
2024/01/18 08:54:38;;;;;;;;;;;0.90;99.90;;;;;;2617941;47;19957;-73
2024/01/18 08:57:07;;;;;;;;;;;0.80;99.90;;;;;;2617750;54;20003;-72
2024/01/18 08:59:37;;;;;;;;;;;0.70;99.90;;;;;;2619186;47;19950;-73
2024/01/18 09:02:07;;;;;;;;;;;0.70;99.90;;;;;;2619528;54;20439;-73
2024/01/18 09:04:51;;;;;;;;;;;0.70;99.90;;;;;;2615801;54;19945;-74
2024/01/18 09:07:21;;;;;;;;;;;0.80;99.90;;;;;;2616349;54;19946;-74
2024/01/18 09:09:51;;;;;;;;;;;0.90;99.90;;;;;;2617057;54;19970;-73
2024/01/18 09:12:21;;;;;;;;;;;0.90;99.90;;;;;;2618618;54;19938;-75
2024/01/18 09:14:51;;;;;;;;;;;0.90;99.90;;;;;;2617668;54;19947;-74
2024/01/18 09:17:20;;;;;;;;;;;0.90;99.90;;;;;;2618820;47;19975;-73
2024/01/18 09:19:52;;;;;;;;;;;1.10;99.90;;;;;;2617506;39;20343;-73
2024/01/18 09:22:24;;;;;;;;;;;1.10;99.90;;;;;;2613157;54;19946;-73
2024/01/18 09:24:53;;;;;;;;;;;1.10;99.90;;;;;;2617818;47;19962;-75
2024/01/18 09:27:26;;;;;;;;;;;1.10;99.90;;;;;;2614552;53;19946;-71
2024/01/18 09:29:56;;;;;;;;;;;1.20;99.90;;;;;;2619227;54;19957;-73
2024/01/18 09:32:26;;;;;;;;;;;1.20;99.90;;;;;;2618670;47;19946;-74
2024/01/18 09:34:58;;;;;;;;;;;1.30;99.90;;;;;;2618964;54;19954;-73
2024/01/18 09:37:28;;;;;;;;;;;1.40;99.90;;;;;;2616979;47;19950;-75
2024/01/18 09:39:57;;;;;;;;;;;1.40;99.90;;;;;;2617238;54;19945;-74
2024/01/18 09:42:31;;;;;;;;;;;1.50;99.90;;;;;;2618262;47;19946;-73
2024/01/18 09:45:02;;;;;;;;;;;1.50;99.90;;;;;;2615706;54;20007;-73
2024/01/18 09:47:32;;;;;;;;;;;1.60;99.90;;;;;;2616937;54;20072;-72
2024/01/18 09:50:05;;;;;;;;;;;1.70;99.90;;;;;;2618544;54;20008;-76
2024/01/18 09:52:34;;;;;;;;;;;1.60;99.90;;;;;;2618906;54;19946;-72
2024/01/18 09:55:04;;;;;;;;;;;1.60;99.90;;;;;;2619543;54;19938;-73
2024/01/18 09:57:35;;;;;;;;;;;1.60;99.90;;;;;;2616844;54;19951;-73
2024/01/18 10:00:08;;;;;;;;;;;1.60;99.90;;;;;;2618279;53;20478;-73
2024/01/18 10:02:38;;;;;;;;;;;1.60;99.90;;;;;;2619612;47;20006;-74
2024/01/18 10:05:14;;;;;;;;;;;1.60;99.90;;;;;;2620539;54;19945;-74
2024/01/18 10:07:44;;;;;;;;;;;1.70;99.90;;;;;;2622857;54;19939;-73
2024/01/18 10:10:15;;;;;;;;;;;1.70;99.90;;;;;;2623569;52;20022;-72
2024/01/18 10:12:47;;;;;;;;;;;1.70;99.90;;;;;;2624042;54;20018;-74
2024/01/18 10:15:32;;;;;;;;;;;1.70;99.90;;;;;;2619779;54;19947;-74
2024/01/18 10:18:02;;;;;;;;;;;1.80;99.90;;;;;;2617852;54;19939;-74
2024/01/18 10:20:36;;;;;;;;;;;1.80;99.90;;;;;;2618344;54;19956;-74
2024/01/18 10:23:06;;;;;;;;;;;1.90;99.90;;;;;;2616493;46;20458;-73
2024/01/18 10:25:36;;;;;;;;;;;1.90;99.90;;;;;;2617542;54;20002;-74
2024/01/18 10:28:06;;;;;;;;;;;2.00;99.90;;;;;;2619916;54;20038;-74
2024/01/18 10:30:36;;;;;;;;;;;2.00;99.90;;;;;;2619873;54;19951;-73
2024/01/18 10:33:08;;;;;;;;;;;2.00;99.90;;;;;;2619426;54;19943;-75
2024/01/18 10:35:41;;;;;;;;;;;2.00;99.90;;;;;;2619128;47;19947;-74
2024/01/18 10:38:10;;;;;;;;;;;2.10;99.90;;;;;;2619991;39;20345;-74
2024/01/18 10:40:40;;;;;;;;;;;2.10;99.90;;;;;;2619816;47;20967;-73
2024/01/18 10:43:10;;;;;;;;;;;2.20;99.90;;;;;;2618519;54;19958;-75
2024/01/18 10:45:40;;;;;;;;;;;2.20;99.90;;;;;;2616626;54;19939;-74
2024/01/18 10:48:09;;;;;;;;;;;2.20;99.90;;;;;;2619098;47;19958;-73
2024/01/18 10:50:43;;;;;;;;;;;2.30;99.90;;;;;;2620334;46;19970;-73
2024/01/18 10:53:13;;;;;;;;;;;2.20;99.90;;;;;;2621485;47;20014;-73
2024/01/18 10:55:42;;;;;;;;;;;2.30;99.90;;;;;;2616197;47;19954;-73
2024/01/18 10:58:12;;;;;;;;;;;2.30;99.90;;;;;;2620928;54;19946;-73
2024/01/18 11:00:42;;;;;;;;;;;2.20;99.90;;;;;;2621186;54;19947;-76
2024/01/18 11:03:12;;;;;;;;;;;2.20;99.90;;;;;;2620860;53;19947;-74
2024/01/18 11:05:46;;;;;;;;;;;2.20;99.90;;;;;;2618402;47;19977;-73
2024/01/18 11:08:17;;;;;;;;;;;2.20;99.90;;;;;;2615948;54;20693;-74
2024/01/18 11:10:47;;;;;;;;;;;2.20;99.90;;;;;;2616611;54;20438;-73
2024/01/18 11:13:17;;;;;;;;;;;2.30;99.90;;;;;;2617550;54;19946;-74
2024/01/18 11:15:47;;;;;;;;;;;2.20;99.90;;;;;;2617796;47;19985;-73
2024/01/18 11:18:17;;;;;;;;;;;2.10;99.90;;;;;;2614426;54;19950;-74
2024/01/18 11:21:08;;;;;;;;;;;2.10;99.90;;;;;;2615034;39;20196;-75
2024/01/18 11:23:40;;;;;;;;;;;2.20;99.90;;;;;;2615043;54;19962;-79
2024/01/18 11:26:10;;;;;;;;;;;2.20;99.90;;;;;;2613176;54;20446;-73
2024/01/18 11:28:40;;;;;;;;;;;2.10;99.90;;;;;;2614132;54;19946;-77
2024/01/18 11:31:09;;;;;;;;;;;2.20;99.90;;;;;;2611190;52;19973;-77
2024/01/18 11:33:40;;;;;;;;;;;2.20;99.90;;;;;;2597383;54;20815;-79
2024/01/18 11:36:13;;;;;;;;;;;2.30;99.90;;;;;;2604423;47;20002;-76
2024/01/18 11:38:47;;;;;;;;;;;2.30;99.90;;;;;;2600643;54;20509;-77
2024/01/18 11:41:26;;;;;;;;;;;2.30;99.90;;;;;;2600827;54;20007;-82
2024/01/18 11:43:57;;;;;;;;;;;2.30;99.90;;;;;;2603980;47;19981;-79
2024/01/18 11:46:37;;;;;;;;;;;2.30;99.90;;;;;;2605798;54;19950;-78
2024/01/18 11:49:10;;;;;;;;;;;2.40;99.90;;;;;;2606531;47;20570;-79
2024/01/18 11:51:44;;;;;;;;;;;2.40;99.90;;;;;;2605153;46;19946;-81
2024/01/18 11:54:17;;;;;;;;;;;2.60;99.90;;;;;;2605119;54;21726;-77
2024/01/18 11:56:49;;;;;;;;;;;2.70;99.90;;;;;;2607427;47;19950;-79
2024/01/18 11:59:19;;;;;;;;;;;2.80;99.90;;;;;;2600356;54;21105;-77
2024/01/18 12:01:49;;;;;;;;;;;2.80;99.90;;;;;;2599131;54;19973;-77
2024/01/18 12:04:18;;;;;;;;;;;2.80;99.90;;;;;;2607758;54;20061;-76
2024/01/18 12:06:51;;;;;;;;;;;2.80;99.90;;;;;;2606027;54;19946;-78
2024/01/18 12:09:21;;;;;;;;;;;2.80;99.90;;;;;;2605180;54;19958;-78
2024/01/18 12:11:51;;;;;;;;;;;2.80;99.90;;;;;;2608627;47;19942;-78
2024/01/18 12:14:20;;;;;;;;;;;2.80;99.90;;;;;;2602224;54;20484;-74
2024/01/18 12:16:50;;;;;;;;;;;2.80;99.90;;;;;;2595846;54;19954;-77
2024/01/18 12:19:31;;;;;;;;;;;2.70;99.90;;;;;;2605839;54;19950;-76
2024/01/18 12:22:03;;;;;;;;;;;2.70;99.90;;;;;;2603089;47;19954;-74
2024/01/18 12:24:33;;;;;;;;;;;2.70;99.90;;;;;;2594131;47;20065;-77
2024/01/18 12:27:04;;;;;;;;;;;2.60;99.90;;;;;;2597111;47;19990;-75
2024/01/18 12:29:34;;;;;;;;;;;2.50;99.90;;;;;;2598422;39;20437;-74
2024/01/18 12:32:05;;;;;;;;;;;2.50;99.90;;;;;;2598419;54;19974;-76
2024/01/18 12:34:35;;;;;;;;;;;2.40;99.90;;;;;;2598979;54;19987;-78
2024/01/18 12:37:07;;;;;;;;;;;2.40;99.90;;;;;;2598902;54;20021;-75
2024/01/18 12:39:37;;;;;;;;;;;2.50;99.90;;;;;;2599172;39;20338;-78
2024/01/18 12:42:07;;;;;;;;;;;2.50;99.90;;;;;;2600813;54;19946;-76
2024/01/18 12:44:37;;;;;;;;;;;2.50;99.90;;;;;;2597659;47;19951;-77
2024/01/18 12:47:07;;;;;;;;;;;2.40;99.90;;;;;;2598188;47;19954;-81
2024/01/18 12:49:39;;;;;;;;;;;2.40;99.90;;;;;;2597683;54;19954;-77
2024/01/18 12:52:12;;;;;;;;;;;2.50;99.90;;;;;;2601616;47;19943;-76
2024/01/18 12:54:43;;;;;;;;;;;2.80;99.90;;;;;;2603171;39;20172;-74
2024/01/18 12:57:13;;;;;;;;;;;2.70;99.90;;;;;;2604127;54;19951;-75
2024/01/18 12:59:44;;;;;;;;;;;2.70;99.90;;;;;;2604564;54;19946;-62
2024/01/18 13:02:19;;;;;;;;;;;2.70;99.90;;;;;;2598446;54;19954;-64
2024/01/18 13:04:51;;;;;;;;;;;3.20;99.90;;;;;;2603653;47;19957;-64
2024/01/18 13:07:23;;;;;;;;;;;2.80;99.90;;;;;;2606099;47;21106;-63
2024/01/18 13:09:54;;;;;;;;;;;2.80;99.90;;;;;;2604260;54;19951;-63
2024/01/18 13:12:24;;;;;;;;;;;2.80;99.90;;;;;;2597455;47;20466;-74
2024/01/18 13:14:53;;;;;;;;;;;2.80;99.90;;;;;;2602173;54;20485;-73
2024/01/18 13:17:24;;;;;;;;;;;2.80;99.90;;;;;;2598032;54;19946;-74
2024/01/18 13:19:54;;;;;;;;;;;2.90;99.90;;;;;;2598140;47;19938;-75
2024/01/18 13:22:26;;;;;;;;;;;3.10;99.90;;;;;;2598641;54;19976;-75
2024/01/18 13:24:56;;;;;;;;;;;3.10;99.90;;;;;;2599015;47;19947;-74
2024/01/18 13:27:26;;;;;;;;;;;3.20;99.90;;;;;;2598285;54;19962;-74
2024/01/18 13:29:56;;;;;;;;;;;3.10;99.90;;;;;;2596854;54;19975;-74
2024/01/18 13:32:26;;;;;;;;;;;3.10;99.90;;;;;;2599012;54;20636;-75
2024/01/18 13:34:56;;;;;;;;;;;3.10;99.90;;;;;;2602399;39;20188;-74
2024/01/18 13:37:29;;;;;;;;;;;3.00;99.90;;;;;;2603157;54;20018;-76
2024/01/18 13:39:59;;;;;;;;;;;2.90;99.90;;;;;;2603611;47;19954;-76
2024/01/18 13:42:30;;;;;;;;;;;2.90;99.90;;;;;;2601558;47;19961;-75
2024/01/18 13:44:59;;;;;;;;;;;2.80;99.90;;;;;;2604398;47;19951;-75
2024/01/18 13:47:29;;;;;;;;;;;2.80;99.90;;;;;;2606319;54;19951;-75
2024/01/18 13:49:59;;;;;;;;;;;2.90;99.90;;;;;;2607851;51;19947;-73
2024/01/18 13:52:31;;;;;;;;;;;2.90;99.90;;;;;;2602273;51;20587;-75
2024/01/18 13:55:01;;;;;;;;;;;2.90;99.90;;;;;;2613946;54;19969;-78
2024/01/18 13:57:31;;;;;;;;;;;2.80;99.90;;;;;;2616769;39;20852;-77
2024/01/18 14:00:01;;;;;;;;;;;2.70;99.90;;;;;;2616112;47;20037;-76
2024/01/18 14:02:31;;;;;;;;;;;2.80;99.90;;;;;;2614395;47;19951;-76
2024/01/18 14:05:02;;;;;;;;;;;2.80;99.90;;;;;;2616910;47;19946;-75
2024/01/18 14:07:35;;;;;;;;;;;3.00;99.90;;;;;;2612856;46;19950;-76
2024/01/18 14:10:05;;;;;;;;;;;2.90;99.90;;;;;;2616555;47;19974;-75
2024/01/18 14:12:36;;;;;;;;;;;2.80;99.90;;;;;;2616831;54;19946;-76
2024/01/18 14:15:06;;;;;;;;;;;2.80;99.90;;;;;;2616528;54;19939;-75
2024/01/18 14:17:35;;;;;;;;;;;2.80;99.90;;;;;;2616296;47;19938;-75
2024/01/18 14:20:06;;;;;;;;;;;2.70;99.90;;;;;;2616481;47;19953;-76
2024/01/18 14:22:39;;;;;;;;;;;2.70;99.90;;;;;;2625614;54;20029;-73
2024/01/18 14:25:10;;;;;;;;;;;2.70;99.90;;;;;;2617393;46;19954;-74
2024/01/18 14:27:39;;;;;;;;;;;2.70;99.90;;;;;;2617540;47;19947;-74
2024/01/18 14:30:10;;;;;;;;;;;2.90;99.90;;;;;;2616971;47;20049;-76
2024/01/18 14:32:41;;;;;;;;;;;2.70;99.90;;;;;;2617926;54;19966;-77
2024/01/18 14:35:11;;;;;;;;;;;2.60;99.90;;;;;;2618163;47;20489;-76
2024/01/18 14:37:43;;;;;;;;;;;2.60;99.90;;;;;;2618787;47;19946;-76
2024/01/18 14:40:13;;;;;;;;;;;2.60;99.90;;;;;;2618966;54;19946;-75
2024/01/18 14:42:43;;;;;;;;;;;2.60;99.90;;;;;;2618281;47;19946;-75
2024/01/18 14:45:12;;;;;;;;;;;2.60;99.90;;;;;;2618125;46;19946;-74
2024/01/18 14:47:43;;;;;;;;;;;2.50;99.90;;;;;;2622012;47;19939;-75
2024/01/18 14:50:13;;;;;;;;;;;2.50;99.90;;;;;;2619820;47;19975;-74
2024/01/18 14:52:45;;;;;;;;;;;2.50;99.90;;;;;;2619172;54;19947;-75
2024/01/18 14:55:17;;;;;;;;;;;2.50;99.90;;;;;;2615358;47;19958;-74
2024/01/18 14:57:47;;;;;;;;;;;2.40;99.90;;;;;;2614491;47;19945;-76
2024/01/18 15:00:18;;;;;;;;;;;2.50;99.90;;;;;;2617455;47;20037;-76
2024/01/18 15:02:47;;;;;;;;;;;2.50;99.90;;;;;;2617012;54;19951;-75
2024/01/18 15:05:17;;;;;;;;;;;2.40;99.90;;;;;;2620100;46;19953;-74
2024/01/18 15:07:49;;;;;;;;;;;2.40;99.90;;;;;;2618285;39;20351;-75
2024/01/18 15:10:19;;;;;;;;;;;2.40;99.90;;;;;;2617614;39;20359;-75
2024/01/18 15:12:49;;;;;;;;;;;2.20;99.90;;;;;;2616093;47;19947;-76
2024/01/18 15:15:18;;;;;;;;;;;2.30;99.90;;;;;;2616740;54;20029;-75
2024/01/18 15:17:48;;;;;;;;;;;2.20;99.90;;;;;;2615758;47;19954;-76
2024/01/18 15:20:19;;;;;;;;;;;2.10;99.90;;;;;;2619659;54;19947;-77
2024/01/18 15:22:52;;;;;;;;;;;2.10;99.90;;;;;;2618053;47;19954;-75
2024/01/18 15:25:22;;;;;;;;;;;2.10;99.90;;;;;;2618436;47;19990;-77
2024/01/18 15:27:51;;;;;;;;;;;2.20;99.90;;;;;;2617942;54;20060;-77
2024/01/18 15:30:21;;;;;;;;;;;1.90;99.90;;;;;;2619940;47;19943;-78
2024/01/18 15:32:51;;;;;;;;;;;1.90;99.90;;;;;;2619470;47;19994;-77
2024/01/18 15:35:21;;;;;;;;;;;1.90;99.90;;;;;;2619963;47;19942;-77
2024/01/18 15:37:53;;;;;;;;;;;1.90;99.90;;;;;;2619571;47;19955;-79
2024/01/18 15:40:23;;;;;;;;;;;1.80;99.90;;;;;;2620116;54;19950;-76
2024/01/18 15:42:53;;;;;;;;;;;1.80;99.90;;;;;;2619659;47;19958;-76
2024/01/18 15:45:22;;;;;;;;;;;1.80;99.90;;;;;;2617823;54;19953;-76
2024/01/18 15:47:54;;;;;;;;;;;1.80;99.90;;;;;;2619386;47;19959;-77
2024/01/18 15:50:24;;;;;;;;;;;1.80;99.90;;;;;;2620909;47;19984;-76
2024/01/18 15:52:56;;;;;;;;;;;1.80;99.90;;;;;;2619406;39;20031;-75
2024/01/18 15:55:25;;;;;;;;;;;1.80;99.90;;;;;;2620620;47;20434;-78
2024/01/18 15:57:55;;;;;;;;;;;1.80;99.90;;;;;;2620150;47;19941;-75
2024/01/18 16:00:25;;;;;;;;;;;1.80;99.90;;;;;;2619030;54;19934;-76
2024/01/18 16:02:54;;;;;;;;;;;1.80;99.90;;;;;;2618563;54;19934;-76
2024/01/18 16:05:24;;;;;;;;;;;1.80;99.90;;;;;;2625383;54;20015;-76
2024/01/18 16:07:57;;;;;;;;;;;1.80;99.90;;;;;;2623044;50;19954;-74
2024/01/18 16:10:27;;;;;;;;;;;1.80;99.90;;;;;;2620609;47;19942;-75
2024/01/18 16:12:58;;;;;;;;;;;1.70;99.90;;;;;;2618166;54;20018;-75
2024/01/18 16:15:28;;;;;;;;;;;1.60;99.90;;;;;;2617109;47;19946;-75
2024/01/18 16:17:58;;;;;;;;;;;1.60;99.90;;;;;;2617509;47;20430;-76
2024/01/18 16:20:28;;;;;;;;;;;1.60;99.90;;;;;;2620464;54;19946;-74
2024/01/18 16:23:01;;;;;;;;;;;1.50;99.90;;;;;;2621075;46;19970;-75
2024/01/18 16:25:31;;;;;;;;;;;1.50;99.90;;;;;;2626483;51;19974;-74
2024/01/18 16:28:01;;;;;;;;;;;1.50;99.90;;;;;;2613901;47;19945;-74
2024/01/18 16:30:30;;;;;;;;;;;1.60;99.90;;;;;;2617945;47;19946;-73
2024/01/18 16:33:00;;;;;;;;;;;1.60;99.90;;;;;;2618419;54;19950;-74
2024/01/18 16:35:31;;;;;;;;;;;1.50;99.90;;;;;;2618898;47;20442;-72
2024/01/18 16:38:03;;;;;;;;;;;1.50;99.90;;;;;;2618555;54;19950;-72
2024/01/18 16:40:33;;;;;;;;;;;1.50;99.90;;;;;;2616431;54;20488;-72
2024/01/18 16:43:03;;;;;;;;;;;1.50;99.90;;;;;;2623410;54;19946;-70
2024/01/18 16:45:33;;;;;;;;;;;1.40;99.90;;;;;;2625599;31;20396;-73
2024/01/18 16:48:03;;;;;;;;;;;1.40;99.90;;;;;;2622036;54;20046;-75
2024/01/18 16:50:32;;;;;;;;;;;1.40;99.90;;;;;;2617739;54;19946;-74
2024/01/18 16:53:05;;;;;;;;;;;1.40;99.90;;;;;;2618549;54;19938;-72
2024/01/18 16:55:37;;;;;;;;;;;1.30;99.90;;;;;;2615724;54;20056;-74
2024/01/18 16:58:06;;;;;;;;;;;1.40;99.90;;;;;;2617737;47;19952;-75
2024/01/18 17:00:36;;;;;;;;;;;1.40;99.90;;;;;;2622133;54;19953;-74
2024/01/18 17:03:06;;;;;;;;;;;1.40;99.90;;;;;;2619024;54;19962;-74
2024/01/18 17:05:36;;;;;;;;;;;1.40;99.90;;;;;;2621050;46;20540;-73
2024/01/18 17:08:08;;;;;;;;;;;1.30;99.90;;;;;;2620530;54;19994;-74
2024/01/18 17:10:38;;;;;;;;;;;1.30;99.90;;;;;;2618005;47;20423;-74
2024/01/18 17:13:08;;;;;;;;;;;1.40;99.90;;;;;;2618471;47;19939;-75
2024/01/18 17:15:39;;;;;;;;;;;1.30;99.90;;;;;;2617836;54;19991;-75
2024/01/18 17:18:09;;;;;;;;;;;1.30;99.90;;;;;;2615877;47;20466;-74
2024/01/18 17:20:38;;;;;;;;;;;1.30;99.90;;;;;;2620295;39;20047;-74
2024/01/18 17:23:11;;;;;;;;;;;1.20;99.90;;;;;;2604881;54;19946;-71
2024/01/18 17:25:40;;;;;;;;;;;1.30;99.90;;;;;;2614831;54;19947;-74
2024/01/18 17:28:10;;;;;;;;;;;1.20;99.90;;;;;;2614832;47;19946;-74
2024/01/18 17:30:43;;;;;;;;;;;1.20;99.90;;;;;;2623134;54;20090;-75
2024/01/18 17:33:13;;;;;;;;;;;1.10;99.90;;;;;;2618354;47;19953;-76
2024/01/18 17:35:43;;;;;;;;;;;1.10;99.90;;;;;;2616211;39;20378;-74
2024/01/18 17:38:16;;;;;;;;;;;1.10;99.90;;;;;;2616673;39;20333;-72
2024/01/18 17:40:45;;;;;;;;;;;1.00;99.90;;;;;;2615430;54;19938;-71
2024/01/18 17:43:15;;;;;;;;;;;1.10;99.90;;;;;;2617647;54;19946;-74
2024/01/18 17:45:45;;;;;;;;;;;1.00;99.90;;;;;;2617329;54;19955;-73
2024/01/18 17:48:15;;;;;;;;;;;1.00;99.90;;;;;;2616618;54;19946;-73
2024/01/18 17:50:46;;;;;;;;;;;1.00;99.90;;;;;;2617384;46;19960;-73
2024/01/18 17:53:19;;;;;;;;;;;1.00;99.90;;;;;;2616767;39;20385;-76
2024/01/18 17:55:49;;;;;;;;;;;1.20;99.90;;;;;;2614856;47;19954;-72
2024/01/18 17:58:19;;;;;;;;;;;1.10;99.90;;;;;;2612305;47;19949;-74
2024/01/18 18:00:49;;;;;;;;;;;1.20;99.90;;;;;;2616314;54;20426;-75
2024/01/18 18:03:18;;;;;;;;;;;1.10;99.90;;;;;;2615751;47;19954;-74
2024/01/18 18:05:48;;;;;;;;;;;1.10;99.90;;;;;;2615889;47;20446;-73
2024/01/18 18:32:18;;;;;;;;;;;1.20;99.90;;;;;;2593452;46;20730;-77
2024/01/18 18:34:48;;;;;;;;;;;1.10;99.90;;;;;;2618595;54;19947;-76
2024/01/18 18:37:18;;;;;;;;;;;1.20;99.90;;;;;;2628379;54;19934;-75
2024/01/18 18:39:57;;;;;;;;;;;1.20;99.90;;;;;;2623271;54;19939;-77
2024/01/18 18:42:27;;;;;;;;;;;1.20;99.90;;;;;;2623483;47;19953;-78
2024/01/18 18:44:57;;;;;;;;;;;1.60;99.90;;;;;;2621159;47;19950;-75
2024/01/18 18:47:29;;;;;;;;;;;1.30;99.90;;;;;;2619521;47;20431;-73
2024/01/18 18:49:59;;;;;;;;;;;1.40;99.90;;;;;;2617984;54;19946;-74
2024/01/18 18:52:33;;;;;;;;;;;1.40;99.90;;;;;;2617902;46;20002;-69
2024/01/18 18:55:03;;;;;;;;;;;1.60;99.90;;;;;;2614003;54;20032;-73
2024/01/18 18:57:32;;;;;;;;;;;1.40;99.90;;;;;;2621104;54;19954;-74
2024/01/18 19:00:03;;;;;;;;;;;1.30;99.90;;;;;;2619564;54;19953;-72
2024/01/18 19:02:35;;;;;;;;;;;1.40;99.90;;;;;;2613148;54;19958;-71
2024/01/18 19:05:05;;;;;;;;;;;1.40;99.90;;;;;;2613934;47;19947;-75
2024/01/18 19:07:36;;;;;;;;;;;1.30;99.90;;;;;;2616697;39;20354;-76
2024/01/18 19:10:06;;;;;;;;;;;1.30;99.90;;;;;;2616915;46;20030;-76
2024/01/18 19:12:35;;;;;;;;;;;1.30;99.90;;;;;;2616405;47;19958;-77
2024/01/18 19:15:06;;;;;;;;;;;1.30;99.90;;;;;;2622664;54;19995;-76
2024/01/18 19:17:41;;;;;;;;;;;1.30;99.90;;;;;;2621495;47;20453;-77
2024/01/18 19:20:12;;;;;;;;;;;1.30;99.90;;;;;;2625141;47;20035;-77
2024/01/18 19:22:48;;;;;;;;;;;1.30;99.90;;;;;;2619478;47;19938;-76
2024/01/18 19:25:18;;;;;;;;;;;1.30;99.90;;;;;;2617659;46;19946;-76
2024/01/18 19:27:48;;;;;;;;;;;1.30;99.90;;;;;;2616378;46;19962;-77
2024/01/18 19:30:17;;;;;;;;;;;1.30;99.90;;;;;;2615950;47;19939;-77
2024/01/18 19:32:50;;;;;;;;;;;1.20;99.90;;;;;;2616496;47;20586;-76
2024/01/18 19:35:19;;;;;;;;;;;1.20;99.90;;;;;;2615617;47;19977;-73
2024/01/18 19:37:50;;;;;;;;;;;1.10;99.90;;;;;;2615341;47;19939;-72
2024/01/18 19:40:20;;;;;;;;;;;1.10;99.90;;;;;;2616490;47;19976;-74
2024/01/18 19:42:49;;;;;;;;;;;1.20;99.90;;;;;;2616270;54;20462;-73
2024/01/18 19:45:21;;;;;;;;;;;1.20;99.90;;;;;;2614487;47;20464;-74
2024/01/18 19:47:54;;;;;;;;;;;1.20;99.90;;;;;;2617492;47;20513;-74
2024/01/18 19:50:25;;;;;;;;;;;1.30;99.90;;;;;;2618456;47;19938;-74
2024/01/18 19:52:56;;;;;;;;;;;1.30;99.90;;;;;;2617291;47;19945;-75
2024/01/18 19:55:26;;;;;;;;;;;1.30;99.90;;;;;;2616715;54;19953;-74
2024/01/18 19:57:56;;;;;;;;;;;1.30;99.90;;;;;;2617081;47;19995;-73
2024/01/18 20:00:28;;;;;;;;;;;1.20;99.90;;;;;;2617364;54;19943;-73
2024/01/18 20:03:01;;;;;;;;;;;1.20;99.90;;;;;;2617152;47;19950;-74
2024/01/18 20:05:32;;;;;;;;;;;1.20;99.90;;;;;;2618694;47;20434;-76
2024/01/18 20:08:02;;;;;;;;;;;1.20;99.90;;;;;;2617011;54;19946;-77
2024/01/18 20:10:32;;;;;;;;;;;1.10;99.90;;;;;;2621575;54;19941;-75
2024/01/18 20:13:01;;;;;;;;;;;1.10;99.90;;;;;;2620180;54;19980;-74
2024/01/18 20:15:31;;;;;;;;;;;1.00;99.90;;;;;;2618338;54;20002;-76
2024/01/18 20:18:04;;;;;;;;;;;1.00;99.90;;;;;;2617874;47;19949;-77
2024/01/18 20:20:34;;;;;;;;;;;1.00;99.90;;;;;;2618046;47;19946;-76
2024/01/18 20:23:05;;;;;;;;;;;1.10;99.90;;;;;;2616182;54;19966;-77
2024/01/18 20:25:35;;;;;;;;;;;1.10;99.90;;;;;;2617114;47;19950;-76
2024/01/18 20:28:05;;;;;;;;;;;1.10;99.90;;;;;;2622917;39;20385;-72
2024/01/18 20:30:35;;;;;;;;;;;1.10;99.90;;;;;;2624235;54;19938;-76
2024/01/18 20:33:07;;;;;;;;;;;1.10;99.90;;;;;;2618979;54;20450;-77
2024/01/18 20:35:37;;;;;;;;;;;1.10;99.90;;;;;;2619506;54;19938;-78
2024/01/18 20:38:08;;;;;;;;;;;1.20;99.90;;;;;;2618887;54;19938;-80
2024/01/18 20:40:38;;;;;;;;;;;1.10;99.90;;;;;;2619143;47;20028;-79
2024/01/18 20:43:09;;;;;;;;;;;1.10;99.90;;;;;;2617505;54;19953;-78
2024/01/18 20:45:39;;;;;;;;;;;1.10;99.90;;;;;;2623394;47;20337;-79
2024/01/18 20:48:11;;;;;;;;;;;1.10;99.90;;;;;;2626830;47;19959;-78
2024/01/18 20:50:41;;;;;;;;;;;1.10;99.90;;;;;;2617852;47;20313;-74
2024/01/18 20:53:11;;;;;;;;;;;1.10;99.90;;;;;;2616754;46;19946;-73
2024/01/18 20:55:41;;;;;;;;;;;1.10;99.90;;;;;;2616764;54;20505;-77
2024/01/18 20:58:11;;;;;;;;;;;1.10;99.90;;;;;;2617517;47;19946;-74
2024/01/18 21:00:41;;;;;;;;;;;1.00;99.90;;;;;;2618211;47;19958;-73
2024/01/18 21:03:13;;;;;;;;;;;1.00;99.90;;;;;;2615822;46;20007;-72
2024/01/18 21:05:43;;;;;;;;;;;1.00;99.90;;;;;;2617344;53;19958;-74
2024/01/18 21:08:13;;;;;;;;;;;1.00;99.90;;;;;;2617293;47;19953;-74
2024/01/18 21:10:42;;;;;;;;;;;1.10;99.90;;;;;;2615570;54;19963;-74
2024/01/18 21:13:12;;;;;;;;;;;1.10;99.90;;;;;;2618909;47;19934;-74
2024/01/18 21:15:41;;;;;;;;;;;1.20;99.90;;;;;;2617369;54;19953;-75
2024/01/18 21:18:14;;;;;;;;;;;1.20;99.90;;;;;;2618968;47;19957;-74